createdAt,value
2023-04-10T00:01:08.969Z,99814.59
2023-04-10T00:03:55.836Z,99812.15
2023-04-10T00:06:28.168Z,99809.60
2023-04-10T00:08:54.889Z,99813.65
2023-04-10T00:11:21.441Z,99812.70
2023-04-10T00:13:55.730Z,99812.80
2023-04-10T00:16:27.515Z,99811.54
2023-04-10T00:18:55.830Z,99811.44
2023-04-10T00:21:22.651Z,99808.11
2023-04-10T00:24:00.466Z,99802.82
2023-04-10T00:26:27.683Z,99802.55
2023-04-10T00:28:55.081Z,99807.92
2023-04-10T00:31:24.652Z,99809.08
2023-04-10T00:33:57.984Z,99809.18
2023-04-10T00:36:28.057Z,99805.87
2023-04-10T00:38:54.817Z,99806.36
2023-04-10T00:41:28.902Z,99806.73
2023-04-10T00:43:56.526Z,99806.89
2023-04-10T00:46:23.845Z,99804.23
2023-04-10T00:48:54.715Z,99804.88
2023-04-10T00:51:22.510Z,99801.21
2023-04-10T00:53:51.684Z,99800.59
2023-04-10T00:56:20.322Z,99803.04
2023-04-10T00:58:48.057Z,99799.48
2023-04-10T01:01:14.724Z,99800.86
2023-04-10T01:03:43.355Z,99796.11
2023-04-10T01:06:26.882Z,99799.11
2023-04-10T01:09:22.788Z,99801.14
2023-04-10T01:12:09.099Z,99796.07
2023-04-10T01:15:04.474Z,99788.80
2023-04-10T01:17:55.553Z,99789.25
2023-04-10T01:20:23.844Z,99789.29
2023-04-10T01:23:03.612Z,99797.95
2023-04-10T01:25:44.745Z,99800.89
2023-04-10T01:28:41.014Z,99800.70
2023-04-10T01:31:09.904Z,99800.02
2023-04-10T01:33:41.413Z,99798.13
2023-04-10T01:36:08.678Z,99797.59
2023-04-10T01:38:36.135Z,99798.99
2023-04-10T01:41:02.857Z,99799.92
2023-04-10T01:43:31.667Z,99796.29
2023-04-10T01:45:59.092Z,99795.20
2023-04-10T01:48:25.860Z,99793.88
2023-04-10T01:50:52.731Z,99797.38
2023-04-10T01:53:19.428Z,99798.75
2023-04-10T01:55:47.153Z,99795.39
2023-04-10T01:58:14.930Z,99794.70
2023-04-10T02:00:42.428Z,99797.48
2023-04-10T02:03:10.886Z,99794.08
2023-04-10T02:06:02.577Z,99792.97
2023-04-10T02:09:03.314Z,99799.91
2023-04-10T02:12:06.573Z,99801.43
2023-04-10T02:14:36.534Z,99801.49
2023-04-10T02:17:04.771Z,99802.14
2023-04-10T02:19:31.612Z,99799.57
2023-04-10T02:22:04.413Z,99800.79
2023-04-10T02:24:34.663Z,99797.38
2023-04-10T02:27:01.381Z,99799.98
2023-04-10T02:29:28.931Z,99801.21
2023-04-10T02:31:55.880Z,99803.10
2023-04-10T02:34:22.481Z,99804.34
2023-04-10T02:36:49.489Z,99803.35
2023-04-10T02:39:16.170Z,99805.36
2023-04-10T02:41:48.072Z,99805.70
2023-04-10T02:44:15.176Z,99804.77
2023-04-10T02:46:42.322Z,99806.34
2023-04-10T02:49:09.932Z,99807.80
2023-04-10T02:51:36.873Z,99809.22
2023-04-10T02:54:03.988Z,99808.70
2023-04-10T02:56:34.268Z,99810.41
2023-04-10T02:59:00.956Z,99806.70
2023-04-10T03:01:29.425Z,99812.38
2023-04-10T03:03:57.651Z,99810.40
2023-04-10T03:06:30.723Z,99810.23
2023-04-10T03:08:57.462Z,99810.75
2023-04-10T03:11:24.022Z,99809.10
2023-04-10T03:13:53.381Z,99806.77
2023-04-10T03:16:21.097Z,99809.48
2023-04-10T03:18:48.150Z,99806.94
2023-04-10T03:21:20.827Z,99809.91
2023-04-10T03:23:49.098Z,99814.52
2023-04-10T03:26:16.011Z,99808.92
2023-04-10T03:28:42.682Z,99810.91
2023-04-10T03:31:11.713Z,99807.50
2023-04-10T03:33:39.656Z,99809.86
2023-04-10T03:36:07.207Z,99809.40
2023-04-10T03:38:34.236Z,99811.45
2023-04-10T03:41:01.126Z,99811.59
2023-04-10T03:43:31.033Z,99809.55
2023-04-10T03:45:57.978Z,99820.23
2023-04-10T03:48:30.016Z,99818.37
2023-04-10T03:50:57.697Z,99819.06
2023-04-10T03:53:25.263Z,99821.39
2023-04-10T03:55:52.829Z,99823.98
2023-04-10T03:58:22.590Z,99826.77
2023-04-10T04:00:50.984Z,99827.11
2023-04-10T04:03:24.311Z,99827.83
2023-04-10T04:05:58.430Z,99834.69
2023-04-10T04:08:48.872Z,99833.88
2023-04-10T04:11:15.584Z,99834.02
2023-04-10T04:14:13.324Z,99837.16
2023-04-10T04:16:56.897Z,99837.00
2023-04-10T04:19:55.062Z,99842.71
2023-04-10T04:22:46.707Z,99843.61
2023-04-10T04:25:21.792Z,99844.34
2023-04-10T04:28:15.402Z,99843.39
2023-04-10T04:31:02.062Z,99841.85
2023-04-10T04:33:52.918Z,99843.35
2023-04-10T04:36:50.176Z,99844.59
2023-04-10T04:39:35.736Z,99850.59
2023-04-10T04:42:22.765Z,99847.89
2023-04-10T04:45:09.986Z,99853.27
2023-04-10T04:48:10.231Z,99851.11
2023-04-10T04:50:59.863Z,99852.33
2023-04-10T04:53:45.396Z,99854.33
2023-04-10T04:56:31.668Z,99852.90
2023-04-10T04:59:18.677Z,99857.30
2023-04-10T05:02:06.161Z,99859.86
2023-04-10T05:04:48.167Z,99861.61
2023-04-10T05:07:38.246Z,99865.17
2023-04-10T05:10:25.982Z,99863.34
2023-04-10T05:13:16.935Z,99864.02
2023-04-10T05:15:58.621Z,99874.11
2023-04-10T05:18:40.991Z,99876.42
2023-04-10T05:21:20.681Z,99878.89
2023-04-10T05:24:07.913Z,99876.39
2023-04-10T05:26:49.726Z,99877.17
2023-04-10T05:29:35.340Z,99874.96
2023-04-10T05:32:39.207Z,99881.04
2023-04-10T05:35:38.122Z,99875.77
2023-04-10T05:38:30.766Z,99874.16
2023-04-10T05:41:13.096Z,99877.37
2023-04-10T05:43:56.233Z,99875.96
2023-04-10T05:46:55.169Z,99878.58
2023-04-10T05:49:22.381Z,99880.13
2023-04-10T05:52:02.166Z,99883.13
2023-04-10T05:54:46.524Z,99886.14
2023-04-10T05:57:32.014Z,99886.44
2023-04-10T06:00:38.038Z,99889.20
2023-04-10T06:03:23.334Z,99890.15
2023-04-10T06:05:55.960Z,99890.34
2023-04-10T06:08:24.968Z,99893.39
2023-04-10T06:10:52.884Z,99895.06
2023-04-10T06:13:20.031Z,99898.71
2023-04-10T06:15:48.506Z,99900.29
2023-04-10T06:18:16.466Z,99899.60
2023-04-10T06:20:43.902Z,99901.48
2023-04-10T06:23:13.417Z,99907.20
2023-04-10T06:25:41.265Z,99905.38
2023-04-10T06:28:08.092Z,99903.77
2023-04-10T06:30:39.027Z,99906.21
2023-04-10T06:33:07.835Z,99903.08
2023-04-10T06:35:36.024Z,99903.19
2023-04-10T06:38:03.630Z,99902.77
2023-04-10T06:40:33.469Z,99902.94
2023-04-10T06:43:00.781Z,99903.30
2023-04-10T06:45:34.216Z,99902.67
2023-04-10T06:48:01.473Z,99907.35
2023-04-10T06:50:28.654Z,99905.30
2023-04-10T06:52:59.206Z,99907.31
2023-04-10T06:55:26.515Z,99907.15
2023-04-10T06:58:13.317Z,99906.07
2023-04-10T07:00:40.983Z,99912.87
2023-04-10T07:03:09.116Z,99915.79
2023-04-10T07:05:36.203Z,99917.26
2023-04-10T07:08:03.296Z,99915.33
2023-04-10T07:10:31.616Z,99919.77
2023-04-10T07:13:00.127Z,99918.42
2023-04-10T07:15:40.954Z,99920.08
2023-04-10T07:18:09.137Z,99920.20
2023-04-10T07:20:36.481Z,99920.83
2023-04-10T07:23:11.640Z,99922.03
2023-04-10T07:25:40.554Z,99922.87
2023-04-10T07:28:07.246Z,99923.42
2023-04-10T07:30:42.430Z,99924.94
2023-04-10T07:33:10.130Z,99925.94
2023-04-10T07:35:37.567Z,99924.60
2023-04-10T07:38:05.927Z,99928.56
2023-04-10T07:40:33.324Z,99927.98
2023-04-10T07:43:00.863Z,99932.58
2023-04-10T07:45:28.039Z,99932.05
2023-04-10T07:47:55.547Z,99938.38
2023-04-10T07:50:25.555Z,99937.77
2023-04-10T07:52:52.662Z,99937.38
2023-04-10T07:55:19.922Z,99939.92
2023-04-10T07:57:46.842Z,99941.30
2023-04-10T08:00:14.569Z,99941.16
2023-04-10T08:02:43.499Z,99941.54
2023-04-10T08:05:10.729Z,99941.92
2023-04-10T08:07:37.917Z,99941.48
2023-04-10T08:10:05.271Z,99939.95
2023-04-10T08:12:35.600Z,99938.25
2023-04-10T08:15:05.130Z,99939.27
2023-04-10T08:17:33.485Z,99939.04
2023-04-10T08:20:01.696Z,99939.08
2023-04-10T08:22:29.278Z,99945.03
2023-04-10T08:25:00.579Z,99941.28
2023-04-10T08:27:48.368Z,99944.85
2023-04-10T08:30:16.227Z,99944.02
2023-04-10T08:32:46.643Z,99944.63
2023-04-10T08:35:13.843Z,99945.39
2023-04-10T08:37:49.739Z,99941.95
2023-04-10T08:40:21.623Z,99943.31
2023-04-10T08:42:53.699Z,99942.96
2023-04-10T08:45:22.057Z,99945.79
2023-04-10T08:47:52.072Z,99942.15
2023-04-10T08:50:19.489Z,99944.67
2023-04-10T08:52:46.855Z,99944.08
2023-04-10T08:55:17.197Z,99942.52
2023-04-10T08:57:54.136Z,99945.21
2023-04-10T09:00:25.420Z,99941.20
2023-04-10T09:02:57.656Z,99938.72
2023-04-10T09:05:26.464Z,99945.52
2023-04-10T09:08:01.162Z,99948.45
2023-04-10T09:10:28.255Z,99946.48
2023-04-10T09:12:55.766Z,99949.94
2023-04-10T09:15:22.835Z,99946.33
2023-04-10T09:18:01.179Z,99947.54
2023-04-10T09:20:30.791Z,99946.61
2023-04-10T09:22:58.266Z,99947.02
2023-04-10T09:25:41.104Z,99942.83
2023-04-10T09:28:09.516Z,99945.49
2023-04-10T09:30:40.590Z,99941.00
2023-04-10T09:33:30.021Z,99945.08
2023-04-10T09:35:57.554Z,99943.84
2023-04-10T09:38:26.913Z,99944.34
2023-04-10T09:40:55.536Z,99942.05
2023-04-10T09:43:25.691Z,99939.21
2023-04-10T09:45:57.108Z,99938.73
2023-04-10T09:48:26.371Z,99940.50
2023-04-10T09:50:53.723Z,99935.57
2023-04-10T09:53:23.027Z,99931.99
2023-04-10T09:55:51.591Z,99933.23
2023-04-10T09:58:18.643Z,99936.05
2023-04-10T10:00:49.390Z,99941.29
2023-04-10T10:03:18.891Z,99940.34
2023-04-10T10:05:50.181Z,99938.05
2023-04-10T10:08:25.651Z,99932.77
2023-04-10T10:10:54.118Z,99936.16
2023-04-10T10:13:35.524Z,99930.65
2023-04-10T10:16:26.819Z,99924.88
2023-04-10T10:19:10.806Z,99924.94
2023-04-10T10:21:38.116Z,99930.19
2023-04-10T10:24:09.951Z,99925.53
2023-04-10T10:26:38.719Z,99930.65
2023-04-10T10:29:38.748Z,99929.45
2023-04-10T10:32:13.753Z,99930.33
2023-04-10T10:34:41.576Z,99926.27
2023-04-10T10:37:08.616Z,99924.94
2023-04-10T10:39:43.487Z,99918.70
2023-04-10T10:42:45.647Z,99915.23
2023-04-10T10:45:16.217Z,99918.20
2023-04-10T10:47:45.615Z,99912.95
2023-04-10T10:50:14.185Z,99912.81
2023-04-10T10:53:00.131Z,99908.44
2023-04-10T10:55:27.583Z,99912.74
2023-04-10T10:57:55.590Z,99914.08
2023-04-10T11:00:27.096Z,99915.02
2023-04-10T11:03:14.053Z,99914.72
2023-04-10T11:05:52.097Z,99915.98
2023-04-10T11:08:35.714Z,99915.96
2023-04-10T11:11:12.302Z,99916.83
2023-04-10T11:13:41.471Z,99911.27
2023-04-10T11:16:11.426Z,99914.76
2023-04-10T11:18:56.197Z,99914.56
2023-04-10T11:21:39.734Z,99910.58
2023-04-10T11:24:53.045Z,99901.75
2023-04-10T11:28:12.538Z,99902.52
2023-04-10T11:31:11.668Z,99910.07
2023-04-10T11:33:40.563Z,99909.00
2023-04-10T11:36:07.520Z,99905.85
2023-04-10T11:38:35.749Z,99907.25
2023-04-10T11:41:04.765Z,99905.66
2023-04-10T11:43:34.513Z,99905.80
2023-04-10T11:46:06.894Z,99899.44
2023-04-10T11:48:34.267Z,99906.20
2023-04-10T11:51:11.549Z,99904.82
2023-04-10T11:53:41.870Z,99901.48
2023-04-10T11:56:16.888Z,99899.47
2023-04-10T11:58:44.206Z,99905.48
2023-04-10T12:01:13.875Z,99905.13
2023-04-10T12:03:42.202Z,99907.09
2023-04-10T12:10:47.244Z,99915.17
2023-04-10T12:13:32.470Z,99914.16
2023-04-10T12:16:03.622Z,99909.84
2023-04-10T12:18:30.998Z,99905.59
2023-04-10T12:20:58.931Z,99907.68
2023-04-10T12:23:29.308Z,99905.33
2023-04-10T12:26:27.089Z,99900.43
2023-04-10T12:28:55.307Z,99895.73
2023-04-10T12:31:33.337Z,99898.44
2023-04-10T12:43:00.573Z,99871.55
2023-04-10T12:45:42.221Z,99876.14
2023-04-10T12:48:09.179Z,99872.02
2023-04-10T12:50:47.095Z,99867.09
2023-04-10T12:53:15.114Z,99871.42
2023-04-10T12:55:42.499Z,99877.73
2023-04-10T12:58:19.494Z,99878.56
2023-04-10T13:00:46.979Z,99882.61
2023-04-10T13:03:14.155Z,99892.39
2023-04-10T13:10:31.833Z,99890.30
2023-04-10T13:13:01.842Z,99879.36
2023-04-10T13:15:29.441Z,99879.73
2023-04-10T13:17:56.689Z,99874.02
2023-04-10T13:20:24.560Z,99867.42
2023-04-10T13:22:51.647Z,99859.89
2023-04-10T13:25:18.377Z,99856.73
2023-04-10T13:27:46.203Z,99855.48
2023-04-10T13:30:12.874Z,99854.77
2023-04-10T13:32:39.836Z,99844.23
2023-04-10T13:35:08.475Z,99843.66
2023-04-10T13:37:36.062Z,99842.14
2023-04-10T13:40:04.488Z,99837.39
2023-04-10T13:42:31.958Z,99836.21
2023-04-10T13:44:58.596Z,99834.73
2023-04-10T13:47:25.609Z,99833.29
2023-04-10T13:49:52.763Z,99832.70
2023-04-10T13:52:21.011Z,99831.91
2023-04-10T13:54:48.035Z,99832.29
2023-04-10T13:57:14.718Z,99833.34
2023-04-10T13:59:44.164Z,99826.70
2023-04-10T14:02:11.756Z,99824.98
2023-04-10T14:04:38.779Z,99825.29
2023-04-10T14:07:05.387Z,99828.11
2023-04-10T14:09:32.879Z,99825.46
2023-04-10T14:12:00.942Z,99824.91
2023-04-10T14:14:28.841Z,99821.04
2023-04-10T14:16:56.735Z,99817.37
2023-04-10T14:19:23.560Z,99814.42
2023-04-10T14:21:50.475Z,99811.98
2023-04-10T14:24:17.508Z,99809.04
2023-04-10T14:26:44.817Z,99811.55
2023-04-10T14:29:13.483Z,99809.05
2023-04-10T14:31:56.579Z,99805.89
2023-04-10T14:34:24.549Z,99805.11
2023-04-10T14:36:55.114Z,99798.94
2023-04-10T14:39:23.877Z,99798.66
2023-04-10T14:41:50.972Z,99802.33
2023-04-10T14:44:17.671Z,99802.23
2023-04-10T14:46:45.255Z,99804.75
2023-04-10T14:49:13.279Z,99798.47
2023-04-10T14:51:44.932Z,99793.23
2023-04-10T14:54:11.616Z,99792.51
2023-04-10T14:56:38.328Z,99786.20
2023-04-10T14:59:06.313Z,99784.81
2023-04-10T15:01:33.552Z,99784.22
2023-04-10T15:04:00.682Z,99780.01
2023-04-10T15:06:28.923Z,99780.16
2023-04-10T15:08:56.261Z,99777.10
2023-04-10T15:11:23.159Z,99774.93
2023-04-10T15:13:52.582Z,99771.04
2023-04-10T15:16:21.238Z,99771.98
2023-04-10T15:18:49.368Z,99772.34
2023-04-10T15:21:16.514Z,99773.17
2023-04-10T15:23:43.260Z,99768.52
2023-04-10T15:26:16.553Z,99765.98
2023-04-10T15:28:43.737Z,99762.15
2023-04-10T15:31:10.541Z,99758.85
2023-04-10T15:33:51.114Z,99756.77
2023-04-10T15:36:17.911Z,99755.62
2023-04-10T15:38:45.061Z,99752.71
2023-04-10T15:41:12.409Z,99753.84
2023-04-10T15:43:39.234Z,99749.21
2023-04-10T15:50:39.910Z,99749.98
2023-04-10T15:53:06.656Z,99746.40
2023-04-10T15:55:33.453Z,99744.23
2023-04-10T15:58:05.516Z,99744.83
2023-04-10T16:00:32.749Z,99745.02
2023-04-10T16:02:59.665Z,99742.73
2023-04-10T16:05:26.632Z,99737.40
2023-04-10T16:07:53.664Z,99740.98
2023-04-10T16:10:20.731Z,99737.20
2023-04-10T16:12:47.866Z,99737.52
2023-04-10T16:15:16.212Z,99732.16
2023-04-10T16:17:43.463Z,99728.48
2023-04-10T16:20:13.742Z,99730.61
2023-04-10T16:22:40.872Z,99732.86
2023-04-10T16:25:08.383Z,99733.30
2023-04-10T16:27:36.551Z,99734.90
2023-04-10T16:30:06.011Z,99736.42
2023-04-10T16:32:35.549Z,99734.90
2023-04-10T16:35:05.888Z,99736.29
2023-04-10T16:37:32.878Z,99740.32
2023-04-10T16:40:05.048Z,99738.08
2023-04-10T16:42:32.544Z,99737.20
2023-04-10T16:45:01.451Z,99738.37
2023-04-10T16:47:29.844Z,99736.69
2023-04-10T16:49:56.750Z,99739.54
2023-04-10T16:52:32.870Z,99740.14
2023-04-10T16:54:59.639Z,99738.86
2023-04-10T16:57:26.831Z,99745.25
2023-04-10T17:00:00.899Z,99742.52
2023-04-10T17:02:31.880Z,99742.02
2023-04-10T17:05:00.071Z,99742.23
2023-04-10T17:07:31.616Z,99742.41
2023-04-10T17:10:01.588Z,99743.26
2023-04-10T17:12:31.130Z,99741.89
2023-04-10T17:15:04.163Z,99742.27
2023-04-10T17:17:34.884Z,99743.19
2023-04-10T17:20:03.071Z,99746.66
2023-04-10T17:22:33.573Z,99749.34
2023-04-10T17:25:03.906Z,99751.63
2023-04-10T17:27:33.449Z,99749.02
2023-04-10T17:30:12.681Z,99748.63
2023-04-10T17:32:45.422Z,99744.58
2023-04-10T17:35:15.649Z,99744.30
2023-04-10T17:37:46.569Z,99743.84
2023-04-10T17:40:16.707Z,99748.83
2023-04-10T17:42:45.646Z,99750.05
2023-04-10T17:45:16.361Z,99752.43
2023-04-10T17:47:46.679Z,99758.09
2023-04-10T17:50:15.347Z,99755.98
2023-04-10T17:52:45.391Z,99758.03
2023-04-10T17:55:20.847Z,99760.58
2023-04-10T17:57:55.616Z,99760.19
2023-04-10T18:00:26.651Z,99757.16
2023-04-10T18:03:00.290Z,99762.82
2023-04-10T18:13:27.639Z,99763.70
2023-04-10T18:15:56.446Z,99760.06
2023-04-10T18:18:23.697Z,99761.53
2023-04-10T18:20:51.103Z,99763.50
2023-04-10T18:23:24.464Z,99761.09
2023-04-10T18:25:54.334Z,99761.14
2023-04-10T18:28:21.848Z,99764.98
2023-04-10T18:30:50.317Z,99766.27
2023-04-10T18:33:21.894Z,99769.36
2023-04-10T18:35:53.445Z,99773.16
2023-04-10T18:38:20.792Z,99770.29
2023-04-10T18:40:56.400Z,99768.80
2023-04-10T18:43:29.344Z,99768.09
2023-04-10T18:46:02.075Z,99771.91
2023-04-10T18:48:29.056Z,99768.58
2023-04-10T18:50:55.719Z,99769.52
2023-04-10T18:53:22.388Z,99768.87
2023-04-10T18:55:52.811Z,99767.35
2023-04-10T18:58:20.263Z,99770.02
2023-04-10T19:00:48.437Z,99769.04
2023-04-10T19:03:16.561Z,99769.77
2023-04-10T19:05:46.078Z,99771.74
2023-04-10T19:08:15.193Z,99772.56
2023-04-10T19:10:42.211Z,99774.64
2023-04-10T19:13:11.389Z,99773.05
2023-04-10T19:15:42.695Z,99773.42
2023-04-10T19:18:10.174Z,99771.02
2023-04-10T19:20:50.461Z,99770.63
2023-04-10T19:23:21.871Z,99772.63
2023-04-10T19:25:53.160Z,99774.65
2023-04-10T19:28:19.902Z,99770.83
2023-04-10T19:31:07.478Z,99770.04
2023-04-10T19:33:35.056Z,99766.73
2023-04-10T19:36:02.056Z,99765.71
2023-04-10T19:38:30.072Z,99764.98
2023-04-10T19:40:57.904Z,99764.04
2023-04-10T19:43:24.971Z,99761.30
2023-04-10T19:45:52.782Z,99758.80
2023-04-10T19:48:20.534Z,99759.86
2023-04-10T19:50:47.158Z,99761.22
2023-04-10T19:53:23.031Z,99764.10
2023-04-10T19:55:50.288Z,99764.41
2023-04-10T19:58:30.459Z,99761.31
2023-04-10T20:01:04.752Z,99758.48
2023-04-10T20:03:32.900Z,99758.41
2023-04-10T20:06:01.718Z,99757.50
2023-04-10T20:08:29.694Z,99758.10
2023-04-10T20:10:58.148Z,99757.33
2023-04-10T20:13:25.311Z,99751.15
2023-04-10T20:15:53.746Z,99751.61
2023-04-10T20:18:20.769Z,99748.39
2023-04-10T20:20:47.512Z,99750.45
2023-04-10T20:23:14.383Z,99749.68
2023-04-10T20:25:41.017Z,99751.21
2023-04-10T20:28:08.296Z,99750.32
2023-04-10T20:30:43.559Z,99747.14
2023-04-10T20:33:10.525Z,99747.11
2023-04-10T20:35:37.414Z,99747.27
2023-04-10T20:38:04.300Z,99744.23
2023-04-10T20:40:31.635Z,99741.48
2023-04-10T20:43:02.415Z,99743.05
2023-04-10T20:45:30.267Z,99739.95
2023-04-10T20:47:57.016Z,99738.33
2023-04-10T20:50:23.841Z,99737.77
2023-04-10T20:52:50.560Z,99737.83
2023-04-10T20:55:17.240Z,99737.75
2023-04-10T20:57:44.224Z,99736.45
2023-04-10T21:00:11.613Z,99738.16
2023-04-10T21:02:39.426Z,99735.93
2023-04-10T21:05:06.769Z,99734.05
2023-04-10T21:07:35.711Z,99730.94
2023-04-10T21:10:04.287Z,99733.70
2023-04-10T21:12:31.430Z,99730.80
2023-04-10T21:15:01.007Z,99733.65
2023-04-10T21:17:30.635Z,99731.83
2023-04-10T21:19:58.263Z,99731.81
2023-04-10T21:22:28.071Z,99734.08
2023-04-10T21:24:55.930Z,99733.66
2023-04-10T21:27:27.774Z,99729.88
2023-04-10T21:29:54.436Z,99732.06
2023-04-10T21:32:21.157Z,99725.98
2023-04-10T21:34:47.900Z,99730.42
2023-04-10T21:37:14.557Z,99729.02
2023-04-10T21:39:41.451Z,99727.66
2023-04-10T21:42:08.176Z,99726.99
2023-04-10T21:44:35.103Z,99727.00
2023-04-10T21:47:01.763Z,99727.02
2023-04-10T21:49:29.030Z,99733.11
2023-04-10T21:52:03.824Z,99729.17
2023-04-10T21:54:30.604Z,99725.59
2023-04-10T21:56:58.053Z,99726.98
2023-04-10T21:59:26.245Z,99724.11
2023-04-10T22:01:53.867Z,99722.98
2023-04-10T22:04:20.700Z,99724.20
2023-04-10T22:06:47.427Z,99720.13
2023-04-10T22:09:14.262Z,99720.52
2023-04-10T22:11:40.904Z,99721.66
2023-04-10T22:14:17.176Z,99719.10
2023-04-10T22:16:45.717Z,99718.45
2023-04-10T22:19:12.432Z,99717.77
2023-04-10T22:21:39.106Z,99714.42
2023-04-10T22:24:06.056Z,99710.73
2023-04-10T22:26:33.839Z,99708.68
2023-04-10T22:29:02.983Z,99708.45
2023-04-10T22:31:29.861Z,99706.51
2023-04-10T22:33:56.789Z,99701.73
2023-04-10T22:36:24.385Z,99706.76
2023-04-10T22:38:51.141Z,99705.36
2023-04-10T22:41:17.811Z,99701.42
2023-04-10T22:43:44.498Z,99702.45
2023-04-10T22:46:13.216Z,99696.43
2023-04-10T22:48:40.862Z,99694.93
2023-04-10T22:51:11.397Z,99694.29
2023-04-10T22:53:40.359Z,99695.98
2023-04-10T22:56:08.496Z,99691.70
2023-04-10T22:58:38.555Z,99689.28
2023-04-10T23:01:06.446Z,99682.96
2023-04-10T23:03:33.337Z,99684.77
2023-04-10T23:06:00.273Z,99686.11
2023-04-10T23:08:27.097Z,99684.36
2023-04-10T23:10:54.572Z,99678.50
2023-04-10T23:13:23.977Z,99675.39
2023-04-10T23:15:52.415Z,99669.83
2023-04-10T23:18:19.160Z,99669.34
2023-04-10T23:20:50.502Z,99665.29
2023-04-10T23:23:17.890Z,99662.63
2023-04-10T23:25:44.823Z,99658.63
2023-04-10T23:28:13.286Z,99661.98
2023-04-10T23:30:42.204Z,99657.09
2023-04-10T23:33:09.170Z,99658.67
2023-04-10T23:35:36.670Z,99655.27
2023-04-10T23:38:03.866Z,99654.45
2023-04-10T23:40:30.722Z,99653.56
2023-04-10T23:42:57.864Z,99649.12
2023-04-10T23:45:24.645Z,99644.19
2023-04-10T23:47:54.535Z,99640.55
2023-04-10T23:50:22.084Z,99634.74
2023-04-10T23:52:51.979Z,99631.54
2023-04-10T23:55:21.061Z,99633.80
2023-04-10T23:57:47.901Z,99632.04
